Time;durP1;ratioP1;P1;durP2;ratioP2;P2;SDS_P1;SDS_P2;PMS_P1;PMS_P2;Temp;Humidity;BMP_temperature;BMP_pressure;BME280_temperature;BME280_humidity;BME280_pressure;Samples;Min_cycle;Max_cycle;Signal;HPM_P1;HPM_P2
2023/06/12 00:02:13;;;;;;;5.45;2.85;;;;;;;;;;5158377;27;20042;-76
2023/06/12 00:04:44;;;;;;;6.88;3.00;;;;;;;;;;5139704;27;20118;-77
2023/06/12 00:07:10;;;;;;;7.68;2.63;;;;;;;;;;5139391;27;20051;-76
2023/06/12 00:09:36;;;;;;;5.85;2.75;;;;;;;;;;5155757;27;20050;-76
2023/06/12 00:12:02;;;;;;;4.25;2.90;;;;;;;;;;5157850;27;20176;-76
2023/06/12 00:14:28;;;;;;;5.20;2.83;;;;;;;;;;5138146;27;20505;-76
2023/06/12 00:16:54;;;;;;;5.05;2.90;;;;;;;;;;5156940;27;20043;-76
2023/06/12 00:19:20;;;;;;;6.57;3.00;;;;;;;;;;5138837;27;20042;-76
2023/06/12 00:21:47;;;;;;;5.13;2.58;;;;;;;;;;5122075;27;20093;-76
2023/06/12 00:24:13;;;;;;;7.93;2.92;;;;;;;;;;5157710;27;20351;-76
2023/06/12 00:26:39;;;;;;;6.88;2.78;;;;;;;;;;5139460;27;20448;-76
2023/06/12 00:29:05;;;;;;;5.63;3.03;;;;;;;;;;5157532;27;20059;-76
2023/06/12 00:31:31;;;;;;;7.55;2.92;;;;;;;;;;5156546;27;20486;-76
2023/06/12 00:33:57;;;;;;;6.70;2.67;;;;;;;;;;5156000;27;20053;-76
2023/06/12 00:36:23;;;;;;;8.23;3.05;;;;;;;;;;5138785;27;20049;-76
2023/06/12 00:38:51;;;;;;;4.50;2.63;;;;;;;;;;5138755;27;20476;-76
2023/06/12 00:41:18;;;;;;;7.57;2.90;;;;;;;;;;5138472;27;20055;-76
2023/06/12 00:43:44;;;;;;;6.03;2.70;;;;;;;;;;5121710;27;20395;-76
2023/06/12 00:46:11;;;;;;;7.30;2.75;;;;;;;;;;5138199;27;20090;-76
2023/06/12 00:48:38;;;;;;;7.10;2.78;;;;;;;;;;5156433;27;20046;-76
2023/06/12 00:51:08;;;;;;;5.00;2.70;;;;;;;;;;5156789;27;20050;-76
2023/06/12 00:53:34;;;;;;;5.60;2.72;;;;;;;;;;5136597;27;20363;-76
2023/06/12 00:56:00;;;;;;;9.68;2.90;;;;;;;;;;5156618;27;20042;-76
2023/06/12 00:58:27;;;;;;;7.05;2.70;;;;;;;;;;5138496;27;20114;-76
2023/06/12 01:00:54;;;;;;;9.00;3.00;;;;;;;;;;5156664;27;20046;-77
2023/06/12 01:03:21;;;;;;;8.50;2.70;;;;;;;;;;5121466;27;20038;-76
2023/06/12 01:05:48;;;;;;;8.50;2.90;;;;;;;;;;5156889;27;20043;-77
2023/06/12 01:08:27;;;;;;;6.70;2.90;;;;;;;;;;5137725;27;20079;-76
2023/06/12 01:11:13;;;;;;;4.90;2.80;;;;;;;;;;5138311;27;20131;-76
2023/06/12 01:13:40;;;;;;;9.60;3.13;;;;;;;;;;5156445;27;20395;-76
2023/06/12 01:16:06;;;;;;;9.15;2.95;;;;;;;;;;5156526;27;20043;-77
2023/06/12 01:18:33;;;;;;;6.63;2.58;;;;;;;;;;5137836;27;20056;-76
2023/06/12 01:21:01;;;;;;;7.20;2.75;;;;;;;;;;5156507;27;20098;-76
2023/06/12 01:23:46;;;;;;;5.72;3.00;;;;;;;;;;5120994;27;20114;-77
2023/06/12 01:26:33;;;;;;;5.38;2.97;;;;;;;;;;5156495;27;20441;-77
2023/06/12 01:29:18;;;;;;;8.10;3.05;;;;;;;;;;5137975;27;20055;-76
2023/06/12 01:31:44;;;;;;;7.27;2.77;;;;;;;;;;5156570;27;20039;-76
2023/06/12 01:34:13;;;;;;;9.65;2.88;;;;;;;;;;5156188;27;20507;-76
2023/06/12 01:36:40;;;;;;;4.85;2.60;;;;;;;;;;5154892;27;20035;-77
2023/06/12 01:39:07;;;;;;;7.65;2.65;;;;;;;;;;5156003;27;20045;-76
2023/06/12 01:41:34;;;;;;;6.53;2.78;;;;;;;;;;5137472;27;20554;-77
2023/06/12 01:44:09;;;;;;;6.95;2.95;;;;;;;;;;5120257;27;20046;-76
2023/06/12 01:46:36;;;;;;;6.32;2.85;;;;;;;;;;5137444;27;20043;-77
2023/06/12 01:49:08;;;;;;;7.47;3.08;;;;;;;;;;5155844;27;20046;-77
2023/06/12 01:51:35;;;;;;;9.18;3.08;;;;;;;;;;5155122;27;20042;-77
2023/06/12 01:54:02;;;;;;;7.55;2.90;;;;;;;;;;5137461;27;20061;-77
2023/06/12 01:56:28;;;;;;;7.93;3.03;;;;;;;;;;5155939;27;20045;-76
2023/06/12 01:58:55;;;;;;;7.30;3.08;;;;;;;;;;5155971;27;20046;-76
2023/06/12 02:01:22;;;;;;;7.80;3.00;;;;;;;;;;5155643;27;20079;-76
2023/06/12 02:03:48;;;;;;;10.50;3.13;;;;;;;;;;5154968;27;20050;-76
2023/06/12 02:06:15;;;;;;;7.78;2.90;;;;;;;;;;5154282;27;20133;-76
2023/06/12 02:08:41;;;;;;;10.15;3.30;;;;;;;;;;5154510;27;20096;-76
2023/06/12 02:11:07;;;;;;;10.40;3.22;;;;;;;;;;5155605;27;20061;-76
2023/06/12 02:13:33;;;;;;;7.50;2.90;;;;;;;;;;5155105;27;20049;-76
2023/06/12 02:16:01;;;;;;;5.80;2.90;;;;;;;;;;5135763;27;20514;-76
2023/06/12 02:18:27;;;;;;;10.90;3.13;;;;;;;;;;5153651;27;20038;-76
2023/06/12 02:20:53;;;;;;;8.25;2.90;;;;;;;;;;5150988;27;20042;-76
2023/06/12 02:23:19;;;;;;;10.93;2.90;;;;;;;;;;5153558;27;20084;-76
2023/06/12 02:25:45;;;;;;;8.27;3.42;;;;;;;;;;5136291;27;20043;-76
2023/06/12 02:28:11;;;;;;;9.95;3.08;;;;;;;;;;5155329;27;20030;-76
2023/06/12 02:30:37;;;;;;;8.70;3.25;;;;;;;;;;5136225;27;20175;-76
2023/06/12 02:33:09;;;;;;;9.07;3.03;;;;;;;;;;5136721;27;20054;-76
2023/06/12 02:35:35;;;;;;;10.10;3.25;;;;;;;;;;5136272;27;20460;-76
2023/06/12 02:38:02;;;;;;;6.68;3.40;;;;;;;;;;5155114;27;20050;-76
2023/06/12 02:40:28;;;;;;;5.90;3.50;;;;;;;;;;5135896;27;20502;-76
2023/06/12 02:42:54;;;;;;;6.97;2.92;;;;;;;;;;5136352;27;20043;-76
2023/06/12 02:45:21;;;;;;;7.03;3.30;;;;;;;;;;5155073;27;20129;-76
2023/06/12 02:47:47;;;;;;;7.32;3.20;;;;;;;;;;5154930;27;20042;-76
2023/06/12 02:50:14;;;;;;;9.90;3.20;;;;;;;;;;5136129;27;20053;-76
2023/06/12 02:52:40;;;;;;;9.55;3.50;;;;;;;;;;5154660;27;20043;-76
2023/06/12 02:55:07;;;;;;;8.02;3.10;;;;;;;;;;5134690;27;20515;-76
2023/06/12 02:57:33;;;;;;;7.03;3.75;;;;;;;;;;5154924;27;20068;-76
2023/06/12 03:00:00;;;;;;;8.73;3.60;;;;;;;;;;5154450;27;20038;-76
2023/06/12 03:02:26;;;;;;;6.82;3.10;;;;;;;;;;5154822;27;20043;-76
2023/06/12 03:04:55;;;;;;;6.70;3.35;;;;;;;;;;5135779;27;20047;-76
2023/06/12 03:07:21;;;;;;;6.65;3.22;;;;;;;;;;5154556;27;20050;-76
2023/06/12 03:09:48;;;;;;;7.22;3.60;;;;;;;;;;5135226;27;20047;-76
2023/06/12 03:12:14;;;;;;;5.95;3.47;;;;;;;;;;5154667;27;20541;-76
2023/06/12 03:14:40;;;;;;;11.88;3.50;;;;;;;;;;5154412;27;20445;-76
2023/06/12 03:17:06;;;;;;;8.32;3.25;;;;;;;;;;5154266;27;20078;-76
2023/06/12 03:19:32;;;;;;;8.02;3.50;;;;;;;;;;5154104;27;20039;-76
2023/06/12 03:21:58;;;;;;;7.03;3.20;;;;;;;;;;5154146;27;20547;-76
2023/06/12 03:24:26;;;;;;;9.98;3.60;;;;;;;;;;5153100;27;20050;-76
2023/06/12 03:26:53;;;;;;;7.78;3.38;;;;;;;;;;5154369;27;20043;-76
2023/06/12 03:29:19;;;;;;;6.85;3.40;;;;;;;;;;5154023;27;20065;-76
2023/06/12 03:31:45;;;;;;;7.50;3.65;;;;;;;;;;5154122;27;20073;-76
2023/06/12 03:34:11;;;;;;;6.13;3.20;;;;;;;;;;5154126;27;20035;-76
2023/06/12 03:36:38;;;;;;;12.05;3.80;;;;;;;;;;5154119;27;20047;-76
2023/06/12 03:39:04;;;;;;;10.13;3.80;;;;;;;;;;5153701;27;20042;-76
2023/06/12 03:41:30;;;;;;;7.60;3.75;;;;;;;;;;5153921;27;20083;-76
2023/06/12 03:43:56;;;;;;;8.20;3.40;;;;;;;;;;5154011;27;20065;-76
2023/06/12 03:46:23;;;;;;;7.00;3.55;;;;;;;;;;5135823;27;20074;-76
2023/06/12 03:48:49;;;;;;;9.77;3.88;;;;;;;;;;5135223;27;20046;-76
2023/06/12 03:51:15;;;;;;;11.00;3.70;;;;;;;;;;5153665;27;20139;-76
2023/06/12 03:53:41;;;;;;;8.32;3.50;;;;;;;;;;5153666;27;20046;-76
2023/06/12 03:56:07;;;;;;;11.55;3.88;;;;;;;;;;5154051;27;20052;-76
2023/06/12 03:58:33;;;;;;;7.50;3.65;;;;;;;;;;5134081;27;20043;-76
2023/06/12 04:01:00;;;;;;;8.15;4.07;;;;;;;;;;5135173;27;20046;-76
2023/06/12 04:03:26;;;;;;;8.40;3.50;;;;;;;;;;5118359;27;20064;-76
2023/06/12 04:05:52;;;;;;;12.20;3.80;;;;;;;;;;5153800;27;20043;-76
2023/06/12 04:08:18;;;;;;;11.55;3.90;;;;;;;;;;5153291;27;20082;-76
2023/06/12 04:10:44;;;;;;;9.77;3.72;;;;;;;;;;5153451;27;20042;-76
2023/06/12 04:13:13;;;;;;;11.32;3.85;;;;;;;;;;5153684;27;20446;-76
2023/06/12 04:15:40;;;;;;;8.77;3.83;;;;;;;;;;5153582;27;20066;-76
2023/06/12 04:18:09;;;;;;;8.73;3.70;;;;;;;;;;5135045;27;20094;-76
2023/06/12 04:20:38;;;;;;;8.55;4.10;;;;;;;;;;5152120;27;20058;-75
2023/06/12 04:23:05;;;;;;;8.68;3.90;;;;;;;;;;5133711;27;20118;-75
2023/06/12 04:25:36;;;;;;;7.78;4.05;;;;;;;;;;5134956;27;20043;-75
2023/06/12 04:28:03;;;;;;;10.95;4.00;;;;;;;;;;5153478;27;20078;-75
2023/06/12 04:30:31;;;;;;;6.80;3.67;;;;;;;;;;5116527;27;20043;-75
2023/06/12 04:32:57;;;;;;;14.70;3.92;;;;;;;;;;5153808;27;20054;-75
2023/06/12 04:35:23;;;;;;;9.05;4.30;;;;;;;;;;5154445;27;20038;-75
2023/06/12 04:37:52;;;;;;;5.88;3.83;;;;;;;;;;5155634;27;20099;-75
2023/06/12 04:40:20;;;;;;;7.35;3.97;;;;;;;;;;5141986;27;20399;-75
2023/06/12 04:42:46;;;;;;;7.22;4.05;;;;;;;;;;5136861;27;20051;-76
2023/06/12 04:45:13;;;;;;;6.88;4.03;;;;;;;;;;5135432;27;20038;-76
2023/06/12 04:47:42;;;;;;;8.35;3.90;;;;;;;;;;5136531;27;20130;-76
2023/06/12 04:50:10;;;;;;;9.68;3.67;;;;;;;;;;5136015;27;20057;-76
2023/06/12 04:52:36;;;;;;;7.05;4.10;;;;;;;;;;5135020;27;20049;-76
2023/06/12 04:55:03;;;;;;;10.93;4.03;;;;;;;;;;5117869;27;20043;-76
2023/06/12 04:57:29;;;;;;;8.50;3.92;;;;;;;;;;5135354;27;20043;-76
2023/06/12 04:59:55;;;;;;;11.68;3.95;;;;;;;;;;5134477;27;20043;-76
2023/06/12 05:02:21;;;;;;;6.68;3.95;;;;;;;;;;5136404;27;20064;-76
2023/06/12 05:04:47;;;;;;;8.88;4.20;;;;;;;;;;5134659;27;20035;-76
2023/06/12 05:07:16;;;;;;;7.88;4.10;;;;;;;;;;5136059;27;20133;-76
2023/06/12 05:09:43;;;;;;;7.95;4.00;;;;;;;;;;5150126;27;20043;-76
2023/06/12 05:12:09;;;;;;;7.53;4.10;;;;;;;;;;5138169;27;20047;-77
2023/06/12 05:14:37;;;;;;;11.35;4.45;;;;;;;;;;5138129;27;20483;-75
2023/06/12 05:17:04;;;;;;;7.95;4.00;;;;;;;;;;5156800;27;20459;-77
2023/06/12 05:19:30;;;;;;;9.15;4.65;;;;;;;;;;5156470;27;20050;-75
2023/06/12 05:21:56;;;;;;;8.52;3.97;;;;;;;;;;5156276;27;20043;-75
2023/06/12 05:24:22;;;;;;;11.57;4.60;;;;;;;;;;5156591;27;20480;-76
2023/06/12 05:26:48;;;;;;;7.28;4.22;;;;;;;;;;5156496;27;20047;-76
2023/06/12 05:29:14;;;;;;;12.00;4.35;;;;;;;;;;5156321;27;20038;-75
2023/06/12 05:31:40;;;;;;;10.27;4.57;;;;;;;;;;5156101;27;20205;-75
2023/06/12 05:34:06;;;;;;;9.98;4.50;;;;;;;;;;5156155;27;20106;-75
2023/06/12 05:36:33;;;;;;;8.32;4.20;;;;;;;;;;5137596;27;20086;-76
2023/06/12 05:38:59;;;;;;;11.98;4.50;;;;;;;;;;5137367;27;20043;-76
2023/06/12 05:41:25;;;;;;;9.68;4.40;;;;;;;;;;5155940;27;20096;-76
2023/06/12 05:43:51;;;;;;;9.82;4.63;;;;;;;;;;5137708;27;20045;-76
2023/06/12 05:46:17;;;;;;;11.98;4.30;;;;;;;;;;5155852;27;20390;-76
2023/06/12 05:48:43;;;;;;;9.70;4.32;;;;;;;;;;5136953;27;20372;-76
2023/06/12 05:51:09;;;;;;;10.32;4.00;;;;;;;;;;5137129;27;20042;-77
2023/06/12 05:53:35;;;;;;;12.57;4.53;;;;;;;;;;5155627;27;20046;-76
2023/06/12 05:56:01;;;;;;;9.07;4.32;;;;;;;;;;5136946;27;20501;-76
2023/06/12 05:58:28;;;;;;;9.00;4.28;;;;;;;;;;5154791;27;20043;-76
2023/06/12 06:00:55;;;;;;;10.63;4.80;;;;;;;;;;5136991;27;20047;-76
2023/06/12 06:03:23;;;;;;;7.53;4.13;;;;;;;;;;5137303;27;20347;-76
2023/06/12 06:05:49;;;;;;;9.00;4.32;;;;;;;;;;5155400;27;20054;-76
2023/06/12 06:08:15;;;;;;;10.77;4.88;;;;;;;;;;5155143;27;20454;-75
2023/06/12 06:10:41;;;;;;;8.07;4.20;;;;;;;;;;5136288;27;20085;-76
2023/06/12 06:13:08;;;;;;;9.05;4.43;;;;;;;;;;5155497;27;20082;-76
2023/06/12 06:15:35;;;;;;;8.82;4.30;;;;;;;;;;5153717;27;20047;-76
2023/06/12 06:18:01;;;;;;;11.13;4.30;;;;;;;;;;5153935;27;20098;-76
2023/06/12 06:20:27;;;;;;;9.45;4.50;;;;;;;;;;5154294;27;20043;-75
2023/06/12 06:22:53;;;;;;;9.93;5.03;;;;;;;;;;5155044;27;20085;-75
2023/06/12 06:25:20;;;;;;;9.95;4.50;;;;;;;;;;5154022;27;20074;-76
2023/06/12 06:27:46;;;;;;;13.98;5.15;;;;;;;;;;5134942;27;20035;-77
2023/06/12 06:30:12;;;;;;;9.02;4.50;;;;;;;;;;5136083;27;20039;-76
2023/06/12 06:32:38;;;;;;;7.15;4.30;;;;;;;;;;5154952;27;20042;-76
2023/06/12 06:35:05;;;;;;;10.48;4.60;;;;;;;;;;5153123;27;20085;-77
2023/06/12 06:37:31;;;;;;;12.05;4.80;;;;;;;;;;5119489;27;20053;-76
2023/06/12 06:39:57;;;;;;;10.57;4.75;;;;;;;;;;5154632;27;20046;-77
2023/06/12 06:42:23;;;;;;;10.57;4.50;;;;;;;;;;5136694;27;20057;-76
2023/06/12 06:44:49;;;;;;;10.05;4.50;;;;;;;;;;5154530;27;20042;-77
2023/06/12 06:47:15;;;;;;;10.95;4.20;;;;;;;;;;5154664;27;20041;-76
2023/06/12 06:49:41;;;;;;;9.98;4.80;;;;;;;;;;5134556;27;20050;-77
2023/06/12 06:52:08;;;;;;;9.75;4.63;;;;;;;;;;5154591;27;20148;-77
2023/06/12 06:54:34;;;;;;;10.35;4.53;;;;;;;;;;5135711;27;20036;-76
2023/06/12 06:57:00;;;;;;;10.25;4.65;;;;;;;;;;5135931;27;20039;-76
2023/06/12 06:59:26;;;;;;;9.23;4.75;;;;;;;;;;5154080;27;20117;-77
2023/06/12 07:01:52;;;;;;;10.05;4.28;;;;;;;;;;5135862;27;20053;-76
2023/06/12 07:04:18;;;;;;;9.48;4.30;;;;;;;;;;5154121;27;20038;-76
2023/06/12 07:06:44;;;;;;;10.35;4.63;;;;;;;;;;5135528;27;20098;-76
2023/06/12 07:09:14;;;;;;;9.00;4.20;;;;;;;;;;5153644;27;20051;-76
2023/06/12 07:11:40;;;;;;;10.43;4.68;;;;;;;;;;5154167;27;20152;-76
2023/06/12 07:14:06;;;;;;;11.20;4.53;;;;;;;;;;5135713;27;20461;-77
2023/06/12 07:16:32;;;;;;;10.18;4.63;;;;;;;;;;5135958;27;20391;-76
2023/06/12 07:18:58;;;;;;;9.85;4.50;;;;;;;;;;5154182;27;20117;-77
2023/06/12 07:21:26;;;;;;;9.88;4.60;;;;;;;;;;5135400;27;20039;-76
2023/06/12 07:23:52;;;;;;;6.85;4.30;;;;;;;;;;5153928;27;20050;-76
2023/06/12 07:26:19;;;;;;;8.05;4.32;;;;;;;;;;5118744;27;20039;-76
2023/06/12 07:28:45;;;;;;;8.75;4.53;;;;;;;;;;5134948;27;20059;-77
2023/06/12 07:31:11;;;;;;;10.13;4.53;;;;;;;;;;5132575;27;20047;-77
2023/06/12 07:33:37;;;;;;;12.02;4.70;;;;;;;;;;5153214;27;20035;-76
2023/06/12 07:36:04;;;;;;;8.00;4.55;;;;;;;;;;5135317;27;20479;-77
2023/06/12 07:38:30;;;;;;;11.88;4.40;;;;;;;;;;5135081;27;20047;-77
2023/06/12 07:40:56;;;;;;;8.13;4.43;;;;;;;;;;5153661;27;20038;-77
2023/06/12 07:43:22;;;;;;;10.98;4.65;;;;;;;;;;5134225;27;20035;-77
2023/06/12 07:45:48;;;;;;;14.30;4.72;;;;;;;;;;5153898;27;20053;-77
2023/06/12 07:48:14;;;;;;;11.15;4.53;;;;;;;;;;5135248;27;20102;-77
2023/06/12 07:50:42;;;;;;;10.00;4.30;;;;;;;;;;5153550;27;20047;-77
2023/06/12 07:53:08;;;;;;;9.13;4.30;;;;;;;;;;5135342;27;20042;-76
2023/06/12 07:55:35;;;;;;;11.43;4.78;;;;;;;;;;5153361;27;20107;-75
2023/06/12 07:58:01;;;;;;;13.45;4.90;;;;;;;;;;5153296;27;20464;-76
2023/06/12 08:00:27;;;;;;;9.45;4.28;;;;;;;;;;5153557;27;20060;-76
2023/06/12 08:03:00;;;;;;;9.15;4.60;;;;;;;;;;5153770;27;20038;-76
2023/06/12 08:05:26;;;;;;;10.77;4.72;;;;;;;;;;5153640;27;20042;-76
2023/06/12 08:07:52;;;;;;;8.18;4.65;;;;;;;;;;5153780;27;20409;-75
2023/06/12 08:10:19;;;;;;;11.73;4.35;;;;;;;;;;5154257;27;20390;-75
2023/06/12 08:12:45;;;;;;;11.05;4.75;;;;;;;;;;5139129;27;20112;-76
2023/06/12 08:15:11;;;;;;;7.95;4.60;;;;;;;;;;5139210;27;20154;-76
2023/06/12 08:17:41;;;;;;;6.95;4.60;;;;;;;;;;5157758;27;20035;-76
2023/06/12 08:20:09;;;;;;;8.48;4.82;;;;;;;;;;5157477;27;20051;-76
2023/06/12 08:22:35;;;;;;;7.85;5.10;;;;;;;;;;5157988;27;20099;-76
2023/06/12 08:25:03;;;;;;;9.75;5.07;;;;;;;;;;5157275;27;20502;-76
2023/06/12 08:27:29;;;;;;;9.27;4.97;;;;;;;;;;5139389;27;20046;-76
2023/06/12 08:29:55;;;;;;;9.48;5.10;;;;;;;;;;5138456;27;20043;-76
2023/06/12 08:32:22;;;;;;;9.90;4.93;;;;;;;;;;5139316;27;20058;-79
2023/06/12 08:34:48;;;;;;;10.07;5.13;;;;;;;;;;5157429;27;20101;-76
2023/06/12 08:37:14;;;;;;;13.18;4.80;;;;;;;;;;5139057;27;20691;-76
2023/06/12 08:39:40;;;;;;;9.02;4.80;;;;;;;;;;5156983;27;20399;-75
2023/06/12 08:42:11;;;;;;;13.32;4.80;;;;;;;;;;5157301;27;20035;-77
2023/06/12 08:44:38;;;;;;;11.13;4.93;;;;;;;;;;5157321;27;20107;-77
2023/06/12 08:47:05;;;;;;;9.23;4.50;;;;;;;;;;5157150;27;20392;-75
2023/06/12 08:49:31;;;;;;;9.73;4.60;;;;;;;;;;5121065;27;20071;-76
2023/06/12 08:51:58;;;;;;;11.57;4.57;;;;;;;;;;5138699;27;20116;-76
2023/06/12 08:54:24;;;;;;;10.02;4.90;;;;;;;;;;5138823;27;20069;-76
2023/06/12 08:56:51;;;;;;;8.63;4.57;;;;;;;;;;5157232;27;20440;-76
2023/06/12 08:59:17;;;;;;;8.10;4.70;;;;;;;;;;5156394;27;20083;-76
2023/06/12 09:01:50;;;;;;;11.20;4.80;;;;;;;;;;5153488;27;20049;-76
2023/06/12 09:04:21;;;;;;;9.38;5.10;;;;;;;;;;5155473;27;20416;-76
2023/06/12 09:06:49;;;;;;;6.63;4.28;;;;;;;;;;5136493;27;20043;-77
2023/06/12 09:09:15;;;;;;;10.00;4.78;;;;;;;;;;5154169;27;20125;-76
2023/06/12 09:11:42;;;;;;;9.25;4.45;;;;;;;;;;5155564;27;20125;-77
2023/06/12 09:14:08;;;;;;;10.02;4.88;;;;;;;;;;5156668;27;20091;-77
2023/06/12 09:16:34;;;;;;;7.63;4.38;;;;;;;;;;5156636;27;20050;-77
2023/06/12 09:19:00;;;;;;;6.28;4.30;;;;;;;;;;5156508;27;20118;-76
2023/06/12 09:21:27;;;;;;;7.85;4.43;;;;;;;;;;5155445;27;20071;-76
2023/06/12 09:23:54;;;;;;;9.75;4.40;;;;;;;;;;5155613;27;20046;-76
2023/06/12 09:26:21;;;;;;;8.02;4.55;;;;;;;;;;5155261;27;20107;-76
2023/06/12 09:28:51;;;;;;;9.80;4.82;;;;;;;;;;5156363;27;20050;-76
2023/06/12 09:31:17;;;;;;;9.13;4.25;;;;;;;;;;5137342;27;20049;-75
2023/06/12 09:33:44;;;;;;;6.88;4.50;;;;;;;;;;5156199;27;20121;-77
2023/06/12 09:36:12;;;;;;;9.63;4.85;;;;;;;;;;5155995;27;20043;-77
2023/06/12 09:38:38;;;;;;;8.25;4.82;;;;;;;;;;5137552;27;20046;-77
2023/06/12 09:41:06;;;;;;;10.00;4.57;;;;;;;;;;5156036;27;20039;-77
2023/06/12 09:43:32;;;;;;;10.65;4.78;;;;;;;;;;5155970;27;20107;-77
2023/06/12 09:46:01;;;;;;;7.88;4.20;;;;;;;;;;5137501;27;20441;-76
2023/06/12 09:48:36;;;;;;;9.27;4.97;;;;;;;;;;5156090;27;20474;-77
2023/06/12 09:51:07;;;;;;;7.50;4.10;;;;;;;;;;5136931;27;20524;-76
2023/06/12 09:53:37;;;;;;;7.43;4.40;;;;;;;;;;5155897;27;20039;-76
2023/06/12 09:56:10;;;;;;;9.27;4.47;;;;;;;;;;5156012;27;20047;-76
2023/06/12 09:58:37;;;;;;;6.65;4.65;;;;;;;;;;5136861;27;20045;-76
2023/06/12 10:01:05;;;;;;;6.28;4.30;;;;;;;;;;5155730;27;20465;-77
2023/06/12 10:03:35;;;;;;;7.22;4.60;;;;;;;;;;5155610;27;20046;-78
2023/06/12 10:06:04;;;;;;;9.02;4.72;;;;;;;;;;5155813;27;20127;-76
2023/06/12 10:08:30;;;;;;;10.38;4.63;;;;;;;;;;5155334;27;20058;-78
2023/06/12 10:10:56;;;;;;;7.65;4.60;;;;;;;;;;5136774;27;20090;-77
2023/06/12 10:13:23;;;;;;;8.07;4.70;;;;;;;;;;5136953;27;20077;-76
2023/06/12 10:15:50;;;;;;;10.55;4.68;;;;;;;;;;5155327;27;20038;-76
2023/06/12 10:18:17;;;;;;;9.18;4.80;;;;;;;;;;5155106;27;20498;-76
2023/06/12 10:20:49;;;;;;;7.18;4.05;;;;;;;;;;5155344;27;20046;-76
2023/06/12 10:23:15;;;;;;;10.82;4.50;;;;;;;;;;5155562;27;20051;-77
2023/06/12 10:25:42;;;;;;;8.20;4.55;;;;;;;;;;5155500;27;20120;-78
2023/06/12 10:28:08;;;;;;;10.13;4.43;;;;;;;;;;5155303;27;20034;-78
2023/06/12 10:30:34;;;;;;;8.68;4.05;;;;;;;;;;5154809;27;20391;-77
2023/06/12 10:33:13;;;;;;;7.20;3.88;;;;;;;;;;5155265;27;20395;-77
2023/06/12 10:35:40;;;;;;;7.18;4.40;;;;;;;;;;5136838;27;20454;-78
2023/06/12 10:38:06;;;;;;;6.70;4.30;;;;;;;;;;5154886;27;20047;-77
2023/06/12 10:40:32;;;;;;;6.88;4.50;;;;;;;;;;5118706;27;20103;-77
2023/06/12 10:43:05;;;;;;;6.57;4.32;;;;;;;;;;5154956;27;20884;-77
2023/06/12 10:45:31;;;;;;;14.35;4.75;;;;;;;;;;5152793;27;20038;-79
2023/06/12 10:48:07;;;;;;;11.32;4.35;;;;;;;;;;5155084;27;20074;-77
2023/06/12 10:50:36;;;;;;;8.65;4.40;;;;;;;;;;5154309;27;20094;-77
2023/06/12 10:53:06;;;;;;;7.30;5.07;;;;;;;;;;5153896;27;20511;-78
2023/06/12 10:55:38;;;;;;;9.35;5.07;;;;;;;;;;5153909;27;20035;-77
2023/06/12 10:58:05;;;;;;;8.90;4.47;;;;;;;;;;5135976;27;20080;-78
2023/06/12 11:00:33;;;;;;;10.13;4.82;;;;;;;;;;5154501;27;20114;-77
2023/06/12 11:03:00;;;;;;;9.35;4.28;;;;;;;;;;5154551;27;20150;-78
2023/06/12 11:05:27;;;;;;;8.82;4.82;;;;;;;;;;5118723;27;20505;-78
2023/06/12 11:08:03;;;;;;;7.90;4.70;;;;;;;;;;5154447;27;20106;-79
2023/06/12 11:10:30;;;;;;;7.10;4.30;;;;;;;;;;5133594;27;20059;-77
2023/06/12 11:12:57;;;;;;;10.68;4.63;;;;;;;;;;5134062;27;20430;-78
2023/06/12 11:15:24;;;;;;;8.63;4.63;;;;;;;;;;5133120;27;20046;-81
2023/06/12 11:17:51;;;;;;;10.98;4.30;;;;;;;;;;5133151;27;20445;-79
2023/06/12 11:20:18;;;;;;;6.70;4.10;;;;;;;;;;5133784;27;20051;-78
2023/06/12 11:22:48;;;;;;;6.60;3.88;;;;;;;;;;5133757;27;20050;-78
2023/06/12 11:25:15;;;;;;;8.88;4.00;;;;;;;;;;5132306;27;20055;-78
2023/06/12 11:27:42;;;;;;;6.35;3.97;;;;;;;;;;5115308;27;20049;-78
2023/06/12 11:30:11;;;;;;;7.00;3.60;;;;;;;;;;5133445;27;20395;-78
2023/06/12 11:32:38;;;;;;;7.43;3.83;;;;;;;;;;5133600;27;20047;-77
2023/06/12 11:35:05;;;;;;;5.55;3.78;;;;;;;;;;5133368;27;20083;-79
2023/06/12 11:37:32;;;;;;;8.80;3.88;;;;;;;;;;5133673;27;20039;-78
2023/06/12 11:40:07;;;;;;;7.60;3.97;;;;;;;;;;5125299;27;20079;-78
2023/06/12 11:42:33;;;;;;;9.15;3.80;;;;;;;;;;5154574;27;20058;-77
2023/06/12 11:45:01;;;;;;;9.70;3.53;;;;;;;;;;5134345;27;20043;-76
2023/06/12 11:47:27;;;;;;;6.63;3.80;;;;;;;;;;5154396;27;20099;-77
2023/06/12 11:49:53;;;;;;;10.20;3.50;;;;;;;;;;5135290;27;20176;-79
2023/06/12 11:52:21;;;;;;;11.77;3.55;;;;;;;;;;5154108;27;20047;-77
2023/06/12 11:55:00;;;;;;;8.10;3.60;;;;;;;;;;5153492;27;20043;-77
2023/06/12 11:57:27;;;;;;;7.68;3.60;;;;;;;;;;5154209;27;20043;-80
2023/06/12 11:59:56;;;;;;;7.90;4.07;;;;;;;;;;5134921;27;20043;-77
2023/06/12 12:02:26;;;;;;;6.57;3.72;;;;;;;;;;5135502;27;20107;-79
2023/06/12 12:04:53;;;;;;;7.15;3.47;;;;;;;;;;5153428;27;20046;-78
2023/06/12 12:07:20;;;;;;;8.60;3.70;;;;;;;;;;5154015;27;20054;-80
2023/06/12 12:09:46;;;;;;;7.25;3.60;;;;;;;;;;5134437;27;20086;-77
2023/06/12 12:12:13;;;;;;;6.70;3.67;;;;;;;;;;5153969;27;20068;-78
2023/06/12 12:14:48;;;;;;;6.47;3.50;;;;;;;;;;5153530;27;20049;-77
2023/06/12 12:17:18;;;;;;;6.30;3.70;;;;;;;;;;5153628;27;20047;-77
2023/06/12 12:19:44;;;;;;;8.00;3.75;;;;;;;;;;5153344;27;20472;-78
2023/06/12 12:22:11;;;;;;;6.53;3.78;;;;;;;;;;5153930;27;20391;-79
2023/06/12 12:24:37;;;;;;;9.85;3.70;;;;;;;;;;5151153;27;20046;-78
2023/06/12 12:27:03;;;;;;;7.15;4.25;;;;;;;;;;5133881;27;20082;-78
2023/06/12 12:29:32;;;;;;;6.75;3.85;;;;;;;;;;5153441;27;20086;-77
2023/06/12 12:31:58;;;;;;;6.05;3.60;;;;;;;;;;5153486;27;20507;-77
2023/06/12 12:34:26;;;;;;;8.50;4.30;;;;;;;;;;5153330;27;20406;-80
2023/06/12 12:36:53;;;;;;;8.38;4.18;;;;;;;;;;5133515;27;20489;-80
2023/06/12 12:39:19;;;;;;;7.75;4.20;;;;;;;;;;5151321;27;20042;-79
2023/06/12 12:41:45;;;;;;;9.27;4.25;;;;;;;;;;5153067;27;20058;-79
2023/06/12 12:44:15;;;;;;;8.20;4.30;;;;;;;;;;5153340;27;20046;-78
2023/06/12 12:46:41;;;;;;;8.65;4.40;;;;;;;;;;5153603;27;20099;-78
2023/06/12 12:49:07;;;;;;;10.50;4.60;;;;;;;;;;5153068;27;20046;-79
2023/06/12 12:51:33;;;;;;;9.20;4.43;;;;;;;;;;5134580;27;20398;-79
2023/06/12 12:54:00;;;;;;;9.13;4.32;;;;;;;;;;5134746;27;20087;-78
2023/06/12 12:56:26;;;;;;;7.47;4.32;;;;;;;;;;5154067;27;20057;-78
2023/06/12 12:58:52;;;;;;;13.27;5.05;;;;;;;;;;5156708;27;20035;-79
2023/06/12 13:01:19;;;;;;;6.57;4.18;;;;;;;;;;5137958;27;20061;-77
2023/06/12 13:03:45;;;;;;;6.78;4.47;;;;;;;;;;5156379;27;20479;-77
2023/06/12 13:06:11;;;;;;;12.95;4.80;;;;;;;;;;5156724;27;20050;-77
2023/06/12 13:08:37;;;;;;;8.05;4.68;;;;;;;;;;5156372;27;20047;-77
2023/06/12 13:11:03;;;;;;;10.55;4.57;;;;;;;;;;5156548;27;20046;-79
2023/06/12 13:13:29;;;;;;;10.60;4.82;;;;;;;;;;5138245;27;20043;-76
2023/06/12 13:15:56;;;;;;;7.25;5.20;;;;;;;;;;5138037;27;20390;-77
2023/06/12 13:18:22;;;;;;;10.98;5.10;;;;;;;;;;5156591;27;20041;-79
2023/06/12 13:20:48;;;;;;;8.70;5.05;;;;;;;;;;5156057;27;20411;-82
2023/06/12 13:23:14;;;;;;;8.15;5.10;;;;;;;;;;5135672;27;20035;-78
2023/06/12 13:25:40;;;;;;;7.40;4.95;;;;;;;;;;5155250;27;20053;-78
2023/06/12 13:28:06;;;;;;;6.53;4.90;;;;;;;;;;5156374;27;20053;-79
2023/06/12 13:30:32;;;;;;;7.80;4.95;;;;;;;;;;5137647;27;20133;-77
2023/06/12 13:32:58;;;;;;;8.13;5.07;;;;;;;;;;5138020;27;20047;-78
2023/06/12 13:35:25;;;;;;;9.77;4.97;;;;;;;;;;5137404;27;20048;-79
2023/06/12 13:37:51;;;;;;;9.10;5.07;;;;;;;;;;5156480;27;20051;-79
2023/06/12 13:40:17;;;;;;;10.27;5.00;;;;;;;;;;5155775;27;20038;-77
2023/06/12 13:42:44;;;;;;;10.63;5.07;;;;;;;;;;5155351;27;20576;-78
2023/06/12 13:45:11;;;;;;;8.75;5.05;;;;;;;;;;5134831;27;20043;-78
2023/06/12 13:47:38;;;;;;;8.20;4.97;;;;;;;;;;5155707;27;20047;-77
2023/06/12 13:50:10;;;;;;;9.88;5.32;;;;;;;;;;5137340;27;20046;-77
2023/06/12 13:52:36;;;;;;;8.63;4.80;;;;;;;;;;5156361;27;20035;-79
2023/06/12 13:55:03;;;;;;;8.70;5.30;;;;;;;;;;5155526;27;20049;-78
2023/06/12 13:57:30;;;;;;;10.77;5.00;;;;;;;;;;5155960;27;20396;-76
2023/06/12 13:59:56;;;;;;;7.03;4.82;;;;;;;;;;5135499;27;20106;-78
2023/06/12 14:02:22;;;;;;;10.40;5.30;;;;;;;;;;5136815;27;20043;-78
2023/06/12 14:04:49;;;;;;;11.48;4.90;;;;;;;;;;5136902;27;20043;-79
2023/06/12 14:07:15;;;;;;;8.13;5.45;;;;;;;;;;5155533;27;20402;-77
2023/06/12 14:09:42;;;;;;;9.65;4.85;;;;;;;;;;5154443;27;20051;-78
2023/06/12 14:12:08;;;;;;;9.85;4.68;;;;;;;;;;5155919;27;20122;-78
2023/06/12 14:14:34;;;;;;;8.02;4.80;;;;;;;;;;5155229;27;20043;-77
2023/06/12 14:17:01;;;;;;;8.45;5.15;;;;;;;;;;5155610;27;20046;-78
2023/06/12 14:19:27;;;;;;;6.95;5.00;;;;;;;;;;5136500;27;20098;-78
2023/06/12 14:21:54;;;;;;;8.38;5.22;;;;;;;;;;5155138;27;20047;-78
2023/06/12 14:24:20;;;;;;;7.65;5.30;;;;;;;;;;5155590;27;20034;-81
2023/06/12 14:26:46;;;;;;;7.93;5.32;;;;;;;;;;5155192;27;20126;-77
2023/06/12 14:29:12;;;;;;;6.05;5.07;;;;;;;;;;5154273;27;20196;-77
2023/06/12 14:31:38;;;;;;;6.78;4.95;;;;;;;;;;5153689;27;20039;-78
2023/06/12 14:34:04;;;;;;;11.20;5.30;;;;;;;;;;5136403;27;20070;-77
2023/06/12 14:36:30;;;;;;;7.05;5.30;;;;;;;;;;5155017;27;20049;-79
2023/06/12 14:38:56;;;;;;;6.82;5.10;;;;;;;;;;5155095;27;20035;-78
2023/06/12 14:41:23;;;;;;;9.13;5.50;;;;;;;;;;5154557;27;20089;-77